createdAt,value
2022-08-09T00:00:29.138Z,86.19
2022-08-09T00:01:39.915Z,86.29
2022-08-09T00:02:30.404Z,86.39
2022-08-09T00:04:00.806Z,86.49
2022-08-09T00:04:35.413Z,86.49
2022-08-09T00:06:17.601Z,86.49
2022-08-09T00:06:30.080Z,86.79
2022-08-09T00:07:29.681Z,86.90
2022-08-09T00:08:32.236Z,86.79
2022-08-09T00:09:29.027Z,86.69
2022-08-09T00:10:28.998Z,86.59
2022-08-09T00:11:58.670Z,86.39
2022-08-09T00:12:29.977Z,86.39
2022-08-09T00:13:31.525Z,86.29
2022-08-09T00:14:36.364Z,86.19
2022-08-09T00:15:57.988Z,86.19
2022-08-09T00:16:36.649Z,86.19
2022-08-09T00:18:07.576Z,86.29
2022-08-09T00:18:29.977Z,86.29
2022-08-09T00:19:28.963Z,86.19
2022-08-09T00:20:31.485Z,86.08
2022-08-09T00:21:28.865Z,86.19
2022-08-09T00:22:35.130Z,86.39
2022-08-09T00:23:54.647Z,86.53
2022-08-09T00:24:29.825Z,86.73
2022-08-09T00:25:32.922Z,86.83
2022-08-09T00:26:29.977Z,86.83
2022-08-09T00:27:28.784Z,86.94
2022-08-09T00:28:29.767Z,87.04
2022-08-09T00:30:09.989Z,87.04
2022-08-09T00:30:29.752Z,87.14
2022-08-09T00:31:57.328Z,87.28
2022-08-09T00:32:29.715Z,87.38
2022-08-09T00:33:32.468Z,87.38
2022-08-09T00:34:32.544Z,87.38
2022-08-09T00:35:29.657Z,87.38
2022-08-09T00:36:30.812Z,87.48
2022-08-09T00:37:32.725Z,87.59
2022-08-09T00:38:28.637Z,87.48
2022-08-09T00:40:12.293Z,87.59
2022-08-09T00:40:31.147Z,87.69
2022-08-09T00:44:09.935Z,87.69
2022-08-09T00:44:10.260Z,87.69
2022-08-09T00:44:19.481Z,87.69
2022-08-09T00:44:30.043Z,87.59
2022-08-09T00:45:28.599Z,87.59
2022-08-09T00:46:56.085Z,87.83
2022-08-09T00:47:29.536Z,88.03
2022-08-09T00:48:29.537Z,88.13
2022-08-09T00:49:28.564Z,88.23
2022-08-09T00:50:28.600Z,88.13
2022-08-09T00:51:33.823Z,88.09
2022-08-09T00:52:30.450Z,88.09
2022-08-09T00:53:28.448Z,87.99
2022-08-09T00:54:31.455Z,87.99
2022-08-09T00:56:03.179Z,87.89
2022-08-09T00:56:29.499Z,87.79
2022-08-09T00:57:34.842Z,87.79
2022-08-09T00:58:30.545Z,87.89
2022-08-09T00:59:31.652Z,87.99
2022-08-09T01:00:29.353Z,87.99
2022-08-09T01:01:30.206Z,87.99
2022-08-09T01:02:28.381Z,87.99
2022-08-09T01:03:28.479Z,88.03
2022-08-09T01:04:28.299Z,88.03
2022-08-09T01:05:52.001Z,88.23
2022-08-09T01:06:35.431Z,88.23
2022-08-09T01:07:37.910Z,88.23
2022-08-09T01:08:29.239Z,88.34
2022-08-09T01:09:36.444Z,88.44
2022-08-09T01:10:29.200Z,88.64
2022-08-09T01:11:28.195Z,88.64
2022-08-09T01:12:28.193Z,88.54
2022-08-09T01:13:31.276Z,88.44
2022-08-09T01:14:29.169Z,88.34
2022-08-09T01:15:28.139Z,88.13
2022-08-09T01:16:28.146Z,88.07
2022-08-09T01:17:30.300Z,88.18
2022-08-09T01:18:30.608Z,88.18
2022-08-09T01:19:39.720Z,88.28
2022-08-09T01:20:29.078Z,88.28
2022-08-09T01:21:28.046Z,88.18
2022-08-09T01:22:29.064Z,88.38
2022-08-09T01:24:03.466Z,88.58
2022-08-09T01:24:29.043Z,88.68
2022-08-09T01:25:27.993Z,88.89
2022-08-09T01:26:28.011Z,88.82
2022-08-09T01:27:29.237Z,88.82
2022-08-09T01:28:28.023Z,88.93
2022-08-09T01:29:28.289Z,88.93
2022-08-09T01:30:33.619Z,89.03
2022-08-09T01:32:31.246Z,89.13
2022-08-09T01:32:33.554Z,89.23
2022-08-09T01:33:28.932Z,89.43
2022-08-09T01:34:27.903Z,89.74
2022-08-09T01:35:37.420Z,89.84
2022-08-09T01:36:28.866Z,89.84
2022-08-09T01:38:06.414Z,89.84
2022-08-09T01:38:28.874Z,89.74
2022-08-09T01:39:27.849Z,89.64
2022-08-09T01:40:28.371Z,89.64
2022-08-09T01:41:27.979Z,89.64
2022-08-09T01:42:27.770Z,89.54
2022-08-09T01:43:27.787Z,89.64
2022-08-09T01:44:28.726Z,89.54
2022-08-09T01:45:27.772Z,89.33
2022-08-09T01:46:27.786Z,89.23
2022-08-09T01:47:27.715Z,89.33
2022-08-09T01:48:31.425Z,89.43
2022-08-09T01:49:27.856Z,89.43
2022-08-09T01:50:29.936Z,89.43
2022-08-09T01:51:28.670Z,89.43
2022-08-09T01:52:27.640Z,89.33
2022-08-09T01:53:29.304Z,89.23
2022-08-09T01:54:32.545Z,89.28
2022-08-09T01:55:27.627Z,89.37
2022-08-09T01:56:27.676Z,89.68
2022-08-09T01:57:27.651Z,90.05
2022-08-09T01:58:28.106Z,90.14
2022-08-09T01:59:32.333Z,90.14
2022-08-09T02:00:35.939Z,90.05
2022-08-09T02:01:57.766Z,89.74
2022-08-09T02:02:31.052Z,89.64
2022-08-09T02:03:27.493Z,89.64
2022-08-09T02:04:27.542Z,89.64
2022-08-09T02:05:35.436Z,89.54
2022-08-09T02:06:28.475Z,89.37
2022-08-09T02:08:38.992Z,89.28
2022-08-09T02:08:39.640Z,89.17
2022-08-09T02:09:42.565Z,89.37
2022-08-09T02:10:30.183Z,89.48
2022-08-09T02:11:42.869Z,89.78
2022-08-09T02:12:28.456Z,89.88
2022-08-09T02:13:37.593Z,89.78
2022-08-09T02:14:28.407Z,89.78
2022-08-09T02:15:27.402Z,89.68
2022-08-09T02:16:33.943Z,89.68
2022-08-09T02:18:01.629Z,89.98
2022-08-09T02:18:28.300Z,90.29
2022-08-09T02:19:34.950Z,90.29
2022-08-09T02:20:33.881Z,90.33
2022-08-09T02:21:28.256Z,90.33
2022-08-09T02:22:35.717Z,90.44
2022-08-09T02:23:28.238Z,90.53
2022-08-09T02:24:28.343Z,90.74
2022-08-09T02:25:27.199Z,90.84
2022-08-09T02:26:27.687Z,90.94
2022-08-09T02:27:43.059Z,91.00
2022-08-09T02:28:28.169Z,91.10
2022-08-09T02:29:27.336Z,91.05
2022-08-09T02:30:27.145Z,91.05
2022-08-09T02:31:27.153Z,91.05
2022-08-09T02:32:27.194Z,91.14
2022-08-09T02:33:38.128Z,91.14
2022-08-09T02:34:41.494Z,91.25
2022-08-09T02:36:01.413Z,91.25
2022-08-09T02:36:28.071Z,91.25
2022-08-09T02:37:31.669Z,91.10
2022-08-09T02:38:28.561Z,91.00
2022-08-09T02:39:33.682Z,90.94
2022-08-09T02:40:30.441Z,90.84
2022-08-09T02:41:27.018Z,90.84
2022-08-09T02:42:27.003Z,90.84
2022-08-09T02:43:28.842Z,90.84
2022-08-09T02:44:30.302Z,90.84
2022-08-09T02:45:28.808Z,90.84
2022-08-09T02:46:27.652Z,90.94
2022-08-09T02:47:26.919Z,91.05
2022-08-09T02:48:30.853Z,91.14
2022-08-09T02:49:27.196Z,91.25
2022-08-09T02:50:27.924Z,91.14
2022-08-09T02:51:26.889Z,91.05
2022-08-09T02:52:26.881Z,90.84
2022-08-09T02:53:26.916Z,90.74
2022-08-09T02:54:26.836Z,90.84
2022-08-09T02:55:46.414Z,90.94
2022-08-09T02:56:28.011Z,91.05
2022-08-09T02:57:26.911Z,91.14
2022-08-09T02:58:36.182Z,91.14
2022-08-09T02:59:36.518Z,91.14
2022-08-09T03:00:27.796Z,91.14
2022-08-09T03:01:29.443Z,91.25
2022-08-09T03:02:27.846Z,91.25
2022-08-09T03:03:37.295Z,91.25
2022-08-09T03:04:29.012Z,91.19
2022-08-09T03:05:26.695Z,91.19
2022-08-09T03:06:27.273Z,91.19
2022-08-09T03:07:26.665Z,91.29
2022-08-09T03:08:27.667Z,91.49
2022-08-09T03:09:26.634Z,91.69
2022-08-09T03:10:27.638Z,91.90
2022-08-09T03:11:29.953Z,92.00
2022-08-09T03:12:27.627Z,92.00
2022-08-09T03:13:26.597Z,91.80
2022-08-09T03:14:28.424Z,91.69
2022-08-09T03:16:04.118Z,91.69
2022-08-09T03:16:27.540Z,91.84
2022-08-09T03:17:27.559Z,91.90
2022-08-09T03:18:26.540Z,92.14
2022-08-09T03:19:58.790Z,92.10
2022-08-09T03:20:29.480Z,92.25
2022-08-09T03:21:26.487Z,92.25
2022-08-09T03:22:30.399Z,92.25
2022-08-09T03:23:26.458Z,92.35
2022-08-09T03:24:31.534Z,92.35
2022-08-09T03:25:58.455Z,92.35
2022-08-09T03:26:31.947Z,92.35
2022-08-09T03:27:26.386Z,92.45
2022-08-09T03:28:26.428Z,92.45
2022-08-09T03:29:26.441Z,92.65
2022-08-09T03:30:33.349Z,92.71
2022-08-09T03:31:27.337Z,92.82
2022-08-09T03:32:26.349Z,92.82
2022-08-09T03:33:26.305Z,92.71
2022-08-09T03:34:27.299Z,92.71
2022-08-09T03:36:11.362Z,92.51
2022-08-09T03:36:28.149Z,92.55
2022-08-09T03:37:54.850Z,92.55
2022-08-09T03:38:29.025Z,92.55
2022-08-09T03:39:37.494Z,92.61
2022-08-09T03:40:31.122Z,92.61
2022-08-09T03:41:30.337Z,92.82
2022-08-09T03:42:28.946Z,93.02
2022-08-09T03:43:27.172Z,93.12
2022-08-09T03:44:27.815Z,93.12
2022-08-09T03:46:05.159Z,93.12
2022-08-09T03:46:29.331Z,93.06
2022-08-09T03:47:26.788Z,93.02
2022-08-09T03:48:30.549Z,93.12
2022-08-09T03:49:26.124Z,93.22
2022-08-09T03:50:27.983Z,93.22
2022-08-09T03:51:56.910Z,93.22
2022-08-09T03:52:28.026Z,93.22
2022-08-09T03:53:32.180Z,93.12
2022-08-09T03:54:29.743Z,92.86
2022-08-09T03:55:26.488Z,92.65
2022-08-09T03:56:26.028Z,92.65
2022-08-09T03:57:26.046Z,92.55
2022-08-09T03:58:26.993Z,92.65
2022-08-09T03:59:27.456Z,92.76
2022-08-09T04:00:27.007Z,92.86
2022-08-09T04:01:25.953Z,92.86
2022-08-09T04:02:26.734Z,92.96
2022-08-09T04:03:35.448Z,92.96
2022-08-09T04:04:26.906Z,92.86
2022-08-09T04:05:28.044Z,92.86
2022-08-09T04:06:25.894Z,92.76
2022-08-09T04:07:33.658Z,92.76
2022-08-09T04:08:29.068Z,92.76
2022-08-09T04:09:48.355Z,92.76
2022-08-09T04:10:29.079Z,92.86
2022-08-09T04:11:25.825Z,92.76
2022-08-09T04:12:30.895Z,92.61
2022-08-09T04:13:26.788Z,92.61
2022-08-09T04:14:53.417Z,92.55
2022-08-09T04:15:52.043Z,92.45
2022-08-09T04:16:26.743Z,92.45
2022-08-09T04:17:25.733Z,92.45
2022-08-09T04:18:25.715Z,92.45
2022-08-09T04:19:42.668Z,92.55
2022-08-09T04:20:26.700Z,92.65
2022-08-09T04:21:25.687Z,92.65
2022-08-09T04:22:25.657Z,92.65
2022-08-09T04:23:26.009Z,92.65
2022-08-09T04:24:26.844Z,92.55
2022-08-09T04:25:25.649Z,92.55
2022-08-09T04:26:37.901Z,92.55
2022-08-09T04:27:26.596Z,92.55
2022-08-09T04:28:33.326Z,92.51
2022-08-09T04:29:26.667Z,92.51
2022-08-09T04:30:26.182Z,92.61
2022-08-09T04:31:26.409Z,92.61
2022-08-09T04:32:31.651Z,92.61
2022-08-09T04:33:28.641Z,92.61
2022-08-09T04:34:30.749Z,92.61
2022-08-09T04:35:26.682Z,92.61
2022-08-09T04:36:25.690Z,92.71
2022-08-09T04:37:45.360Z,92.61
2022-08-09T04:38:26.496Z,92.61
2022-08-09T04:39:25.478Z,92.61
2022-08-09T04:40:36.243Z,92.71
2022-08-09T04:41:32.426Z,92.71
2022-08-09T04:42:26.406Z,92.71
2022-08-09T04:43:25.429Z,92.71
2022-08-09T04:44:25.369Z,92.71
2022-08-09T04:45:25.379Z,92.71
2022-08-09T04:46:37.589Z,92.71
2022-08-09T04:47:26.345Z,92.67
2022-08-09T04:48:33.481Z,92.67
2022-08-09T04:49:40.732Z,92.67
2022-08-09T04:50:35.102Z,92.71
2022-08-09T04:51:26.325Z,92.67
2022-08-09T04:52:27.001Z,92.67
2022-08-09T04:53:26.269Z,92.67
2022-08-09T04:54:25.941Z,92.67
2022-08-09T04:55:26.162Z,92.67
2022-08-09T04:56:26.267Z,92.67
2022-08-09T04:57:25.392Z,92.67
2022-08-09T04:58:25.185Z,92.77
2022-08-09T04:59:25.165Z,92.87
2022-08-09T05:00:26.200Z,92.87
2022-08-09T05:01:26.175Z,92.83
2022-08-09T05:02:27.518Z,92.77
2022-08-09T05:03:40.412Z,92.77
2022-08-09T05:04:31.156Z,92.77
2022-08-09T05:05:31.823Z,92.67
2022-08-09T05:06:27.911Z,92.67
2022-08-09T05:07:25.105Z,92.67
2022-08-09T05:08:25.120Z,92.67
2022-08-09T05:09:25.127Z,92.77
2022-08-09T05:10:26.078Z,92.87
2022-08-09T05:11:25.058Z,92.87
2022-08-09T05:12:25.993Z,92.97
2022-08-09T05:13:24.995Z,92.93
2022-08-09T05:14:26.872Z,92.72
2022-08-09T05:15:39.287Z,92.63
2022-08-09T05:16:31.703Z,92.63
2022-08-09T05:18:37.820Z,92.63
2022-08-09T05:18:50.675Z,92.63
2022-08-09T05:19:44.470Z,92.83
2022-08-09T05:20:25.949Z,92.93
2022-08-09T05:21:30.507Z,93.03
2022-08-09T05:22:33.294Z,92.99
2022-08-09T05:23:57.752Z,92.89
2022-08-09T05:24:25.941Z,92.89
2022-08-09T05:25:24.872Z,92.89
2022-08-09T05:26:32.175Z,92.89
2022-08-09T05:27:25.843Z,92.89
2022-08-09T05:28:24.812Z,92.99
2022-08-09T05:29:31.256Z,92.94
2022-08-09T05:30:25.771Z,93.05
2022-08-09T05:31:44.365Z,93.05
2022-08-09T05:32:25.739Z,92.90
2022-08-09T05:33:26.446Z,92.90
2022-08-09T05:34:30.156Z,92.80
2022-08-09T05:35:25.696Z,92.70
2022-08-09T05:36:26.418Z,92.70
2022-08-09T05:37:24.694Z,92.49
2022-08-09T05:38:24.696Z,92.49
2022-08-09T05:39:28.862Z,92.70
2022-08-09T05:40:25.639Z,92.65
2022-08-09T05:41:24.632Z,92.55
2022-08-09T05:42:28.148Z,92.55
2022-08-09T05:43:24.617Z,92.35
2022-08-09T05:44:29.151Z,92.25
2022-08-09T05:45:25.565Z,92.05
2022-08-09T05:46:25.571Z,92.05
2022-08-09T05:47:24.756Z,91.94
2022-08-09T05:48:27.829Z,91.80
2022-08-09T05:50:23.918Z,91.60
2022-08-09T05:50:44.197Z,91.60
2022-08-09T05:51:41.672Z,91.60
2022-08-09T05:52:25.491Z,91.39
2022-08-09T05:53:33.458Z,91.19
2022-08-09T05:54:25.445Z,90.99
2022-08-09T05:55:24.621Z,90.99
2022-08-09T05:56:25.873Z,90.95
2022-08-09T05:57:24.994Z,90.75
2022-08-09T05:58:25.405Z,90.84
2022-08-09T05:59:24.443Z,90.84
2022-08-09T06:00:24.398Z,90.64
2022-08-09T06:01:25.589Z,90.64
2022-08-09T06:02:25.378Z,90.64
2022-08-09T06:03:24.432Z,90.54
2022-08-09T06:04:25.337Z,90.54
2022-08-09T06:05:50.680Z,90.54
2022-08-09T06:06:29.183Z,90.40
2022-08-09T06:07:24.284Z,90.30
2022-08-09T06:08:25.030Z,90.30
2022-08-09T06:09:54.445Z,90.20
2022-08-09T06:10:25.228Z,90.09
2022-08-09T06:11:40.553Z,90.09
2022-08-09T06:12:27.593Z,90.05
2022-08-09T06:13:24.210Z,89.85
2022-08-09T06:14:24.253Z,89.65
2022-08-09T06:15:24.913Z,89.45
2022-08-09T06:16:24.161Z,89.45
2022-08-09T06:17:24.380Z,89.45
2022-08-09T06:18:25.198Z,89.24
2022-08-09T06:19:24.165Z,89.34
2022-08-09T06:20:24.153Z,89.34
2022-08-09T06:21:24.153Z,89.30
2022-08-09T06:22:29.003Z,89.20
2022-08-09T06:23:57.135Z,89.10
2022-08-09T06:24:25.086Z,88.79
2022-08-09T06:25:24.035Z,88.79
2022-08-09T06:26:28.415Z,88.85
2022-08-09T06:27:24.031Z,88.75
2022-08-09T06:28:27.398Z,88.65
2022-08-09T06:29:26.882Z,88.55
2022-08-09T06:30:24.042Z,88.35
2022-08-09T06:31:31.428Z,88.04
2022-08-09T06:33:00.960Z,87.95
2022-08-09T06:33:39.737Z,87.90
2022-08-09T06:34:26.295Z,87.90
2022-08-09T06:35:55.679Z,87.81
2022-08-09T06:36:27.067Z,87.81
2022-08-09T06:37:28.978Z,87.60
2022-08-09T06:38:32.232Z,87.70
2022-08-09T06:39:24.941Z,87.70
2022-08-09T06:40:24.915Z,88.04
2022-08-09T06:41:23.895Z,88.35
2022-08-09T06:42:30.836Z,88.65
2022-08-09T06:43:24.814Z,88.61
2022-08-09T06:44:23.788Z,88.71
2022-08-09T06:46:07.908Z,88.61
2022-08-09T06:46:39.785Z,88.61
2022-08-09T06:47:24.833Z,88.47
2022-08-09T06:48:30.489Z,88.37
2022-08-09T06:49:44.636Z,88.17
2022-08-09T06:50:24.731Z,87.96
2022-08-09T06:51:23.725Z,87.76
2022-08-09T06:52:25.201Z,87.52
2022-08-09T06:53:23.687Z,87.32
2022-08-09T06:54:23.732Z,87.32
2022-08-09T06:55:24.030Z,87.21
2022-08-09T06:56:30.968Z,87.01
2022-08-09T06:57:25.785Z,87.01
2022-08-09T06:58:40.811Z,86.97
2022-08-09T07:00:49.648Z,87.07
2022-08-09T07:00:51.426Z,86.97
2022-08-09T07:01:35.566Z,86.87
2022-08-09T07:02:30.880Z,86.77
2022-08-09T07:03:27.775Z,86.57
2022-08-09T07:04:23.510Z,86.57
2022-08-09T07:05:23.507Z,86.43
2022-08-09T07:06:25.535Z,86.33
2022-08-09T07:07:28.548Z,86.33
2022-08-09T07:08:24.857Z,86.33
2022-08-09T07:09:55.370Z,86.33
2022-08-09T07:10:31.308Z,86.13
2022-08-09T07:11:25.671Z,85.88
2022-08-09T07:12:40.725Z,85.58
2022-08-09T07:13:28.204Z,85.58
2022-08-09T07:14:26.658Z,85.58
2022-08-09T07:16:39.377Z,85.68
2022-08-09T07:16:42.047Z,85.54
2022-08-09T07:17:24.354Z,85.44
2022-08-09T07:18:23.383Z,85.24
2022-08-09T07:19:23.872Z,85.24
2022-08-09T07:20:23.334Z,84.74
2022-08-09T07:21:23.331Z,84.74
2022-08-09T07:22:27.399Z,85.34
2022-08-09T07:23:24.322Z,85.44
2022-08-09T07:24:31.876Z,85.14
2022-08-09T07:25:24.248Z,84.89
2022-08-09T07:26:23.271Z,85.00
2022-08-09T07:27:27.282Z,85.30
2022-08-09T07:28:26.213Z,84.95
2022-08-09T07:29:23.218Z,84.85
2022-08-09T07:30:24.364Z,84.45
2022-08-09T07:31:23.299Z,84.15
2022-08-09T07:32:23.142Z,83.95
2022-08-09T07:33:24.321Z,83.75
2022-08-09T07:34:23.137Z,83.54
2022-08-09T07:35:23.107Z,83.31
2022-08-09T07:36:23.112Z,83.51
2022-08-09T07:37:23.094Z,83.51
2022-08-09T07:38:23.583Z,83.20
2022-08-09T07:39:41.278Z,83.20
2022-08-09T07:40:26.889Z,82.90
2022-08-09T07:41:24.025Z,83.20
2022-08-09T07:42:23.021Z,82.80
2022-08-09T07:43:29.099Z,82.40
2022-08-09T07:44:24.345Z,82.40
2022-08-09T07:45:40.361Z,82.40
2022-08-09T07:46:27.643Z,82.60
2022-08-09T07:47:25.014Z,82.40
2022-08-09T07:48:30.456Z,82.30
2022-08-09T07:49:24.130Z,82.40
2022-08-09T07:50:34.983Z,82.26
2022-08-09T07:52:03.169Z,82.06
2022-08-09T07:52:24.128Z,82.26
2022-08-09T07:54:01.748Z,82.46
2022-08-09T07:54:28.005Z,82.06
2022-08-09T07:55:23.867Z,81.65
2022-08-09T07:56:27.260Z,81.46
2022-08-09T07:57:22.825Z,81.35
2022-08-09T07:58:26.898Z,81.32
2022-08-09T07:59:33.877Z,81.21
2022-08-09T08:00:35.801Z,81.41
2022-08-09T08:01:23.791Z,81.32
2022-08-09T08:02:23.890Z,81.62
2022-08-09T08:03:24.159Z,82.02
2022-08-09T08:04:31.203Z,81.82
2022-08-09T08:05:23.719Z,81.32
2022-08-09T08:06:22.730Z,80.98
2022-08-09T08:08:43.575Z,80.88
2022-08-09T08:09:00.213Z,81.38
2022-08-09T08:09:41.192Z,80.88
2022-08-09T08:10:27.331Z,79.83
2022-08-09T08:12:10.640Z,79.73
2022-08-09T08:12:27.909Z,79.13
2022-08-09T08:13:23.628Z,77.92
2022-08-09T08:14:24.223Z,78.29
2022-08-09T08:15:23.025Z,77.99
2022-08-09T08:16:29.713Z,76.98
2022-08-09T08:17:35.266Z,77.19
2022-08-09T08:18:23.540Z,76.78
2022-08-09T08:19:22.531Z,76.78
2022-08-09T08:20:28.598Z,76.95
2022-08-09T08:21:23.496Z,77.05
2022-08-09T08:22:30.130Z,77.55
2022-08-09T08:23:25.652Z,77.01
2022-08-09T08:24:22.454Z,76.71
2022-08-09T08:25:22.441Z,73.40
2022-08-09T08:26:26.749Z,73.80
2022-08-09T08:27:23.411Z,75.31
2022-08-09T08:28:26.236Z,74.27
2022-08-09T08:29:28.010Z,74.57
2022-08-09T08:30:23.401Z,74.67
2022-08-09T08:31:24.468Z,74.37
2022-08-09T08:32:28.941Z,74.87
2022-08-09T08:33:24.548Z,75.04
2022-08-09T08:34:25.345Z,74.73
2022-08-09T08:35:22.810Z,74.54
2022-08-09T08:36:28.493Z,74.23
2022-08-09T08:37:23.306Z,74.23
2022-08-09T08:38:22.277Z,73.93
2022-08-09T08:39:22.367Z,73.13
2022-08-09T08:40:22.267Z,73.03
2022-08-09T08:41:22.448Z,73.33
2022-08-09T08:42:29.515Z,73.23
2022-08-09T08:43:23.359Z,73.53
2022-08-09T08:44:27.237Z,73.53
2022-08-09T08:45:37.162Z,74.03
2022-08-09T08:46:32.065Z,74.10
2022-08-09T08:47:23.253Z,72.39
2022-08-09T08:48:22.133Z,72.60
2022-08-09T08:49:22.617Z,73.19
2022-08-09T08:50:23.112Z,72.56
2022-08-09T08:51:22.610Z,72.86
2022-08-09T08:52:58.123Z,72.23
2022-08-09T08:53:23.060Z,72.72
2022-08-09T08:54:29.708Z,71.99
2022-08-09T08:55:23.551Z,71.06
2022-08-09T08:56:28.345Z,70.86
2022-08-09T08:57:23.029Z,70.42
2022-08-09T08:58:23.946Z,68.63
2022-08-09T08:59:22.986Z,68.23
2022-08-09T09:00:27.526Z,67.83
2022-08-09T09:01:24.680Z,67.33
2022-08-09T09:02:31.374Z,67.93
2022-08-09T09:03:33.175Z,68.43
2022-08-09T09:04:26.905Z,66.43
2022-08-09T09:05:33.090Z,66.93
2022-08-09T09:06:22.952Z,67.53
2022-08-09T09:07:21.922Z,66.30
2022-08-09T09:08:30.666Z,66.00
2022-08-09T09:09:50.260Z,64.90
2022-08-09T09:10:22.899Z,65.87
2022-08-09T09:11:21.867Z,64.67
2022-08-09T09:12:21.907Z,64.87
2022-08-09T09:13:21.817Z,65.26
2022-08-09T09:14:21.799Z,65.37
2022-08-09T09:15:28.070Z,65.26
2022-08-09T09:16:29.702Z,65.87
2022-08-09T09:17:23.739Z,64.54
2022-08-09T09:18:22.755Z,64.44
2022-08-09T09:19:40.084Z,62.84
2022-08-09T09:20:22.728Z,62.94
2022-08-09T09:21:26.201Z,63.21
2022-08-09T09:22:26.901Z,63.31
2022-08-09T09:23:22.730Z,63.54
2022-08-09T09:24:22.670Z,63.14
2022-08-09T09:26:04.056Z,62.94
2022-08-09T09:26:22.696Z,63.64
2022-08-09T09:28:02.898Z,63.81
2022-08-09T09:28:58.930Z,64.34
2022-08-09T09:29:22.599Z,64.77
2022-08-09T09:30:41.078Z,64.37
2022-08-09T09:32:01.792Z,64.47
2022-08-09T09:32:35.385Z,65.00
2022-08-09T09:33:23.794Z,64.20
2022-08-09T09:34:21.532Z,64.83
2022-08-09T09:35:21.546Z,64.83
2022-08-09T09:36:22.231Z,65.33
2022-08-09T09:37:25.627Z,65.63
2022-08-09T09:38:36.465Z,65.20
2022-08-09T09:39:22.613Z,65.80
2022-08-09T09:40:21.503Z,64.40
2022-08-09T09:41:21.442Z,62.10
2022-08-09T09:42:21.566Z,62.60
2022-08-09T09:43:21.690Z,61.87
2022-08-09T09:44:25.937Z,61.35
2022-08-09T09:45:26.223Z,62.74
2022-08-09T09:47:22.375Z,62.91
2022-08-09T09:48:21.361Z,62.59
2022-08-09T09:49:31.863Z,62.95
2022-08-09T09:50:23.392Z,60.06
2022-08-09T09:51:26.194Z,60.16
2022-08-09T09:52:37.313Z,60.93
2022-08-09T09:53:43.612Z,59.56
2022-08-09T09:54:22.276Z,60.36
2022-08-09T09:55:27.942Z,61.13
2022-08-09T09:56:31.632Z,61.69
2022-08-09T09:58:02.195Z,59.81
2022-08-09T09:58:24.435Z,57.94
2022-08-09T09:59:21.204Z,59.74
2022-08-09T10:00:22.010Z,60.03
2022-08-09T10:01:31.204Z,60.43
2022-08-09T10:02:22.185Z,60.00
2022-08-09T10:03:21.207Z,60.68
2022-08-09T10:04:30.451Z,60.44
2022-08-09T10:05:26.997Z,60.55
2022-08-09T10:06:23.075Z,59.03
2022-08-09T10:07:21.104Z,57.11
2022-08-09T10:08:28.104Z,57.14
2022-08-09T10:09:23.874Z,56.64
2022-08-09T10:10:21.068Z,57.60
2022-08-09T10:12:01.446Z,56.34
2022-08-09T10:12:28.593Z,56.04
2022-08-09T10:13:23.233Z,57.83
2022-08-09T10:14:31.017Z,57.83
2022-08-09T10:15:51.012Z,58.83
2022-08-09T10:16:58.139Z,56.14
2022-08-09T10:17:39.792Z,57.46
2022-08-09T10:18:21.969Z,56.77
2022-08-09T10:19:20.949Z,57.96
2022-08-09T10:20:26.890Z,58.75
2022-08-09T10:21:21.919Z,59.25
2022-08-09T10:22:29.459Z,58.16
2022-08-09T10:23:22.321Z,58.06
2022-08-09T10:24:25.695Z,58.83
2022-08-09T10:25:21.878Z,60.12
2022-08-09T10:26:20.843Z,57.36
2022-08-09T10:27:28.701Z,58.56
2022-08-09T10:28:21.848Z,58.75
2022-08-09T10:29:36.099Z,58.75
2022-08-09T10:32:38.736Z,59.64
2022-08-09T10:34:07.911Z,60.33
2022-08-09T10:34:33.174Z,60.33
2022-08-09T10:35:21.738Z,61.66
2022-08-09T10:36:20.733Z,60.36
2022-08-09T10:37:20.732Z,59.27
2022-08-09T10:38:34.350Z,60.16
2022-08-09T10:39:21.730Z,59.64
2022-08-09T10:40:33.471Z,60.60
2022-08-09T10:41:21.675Z,60.27
2022-08-09T10:42:20.649Z,59.95
2022-08-09T10:43:21.666Z,59.42
2022-08-09T10:44:21.715Z,57.04
2022-08-09T10:45:20.617Z,57.21
2022-08-09T10:46:25.185Z,57.60
2022-08-09T10:48:16.735Z,57.81
2022-08-09T10:48:30.075Z,56.98
2022-08-09T10:49:21.565Z,56.38
2022-08-09T10:50:27.114Z,57.08
2022-08-09T10:51:29.844Z,55.69
2022-08-09T10:52:21.523Z,55.52
2022-08-09T10:53:21.259Z,56.21
2022-08-09T10:54:20.500Z,56.04
2022-08-09T10:55:20.491Z,56.47
2022-08-09T10:56:22.611Z,56.87
2022-08-09T10:57:20.438Z,57.56
2022-08-09T10:58:25.409Z,57.19
2022-08-09T10:59:21.434Z,57.86
2022-08-09T11:00:20.446Z,57.56
2022-08-09T11:03:11.280Z,55.77
2022-08-09T11:03:13.217Z,56.59
2022-08-09T11:03:47.022Z,56.52
2022-08-09T11:04:31.252Z,56.92
2022-08-09T11:05:24.848Z,56.49
2022-08-09T11:06:22.940Z,56.79
2022-08-09T11:07:20.306Z,56.87
2022-08-09T11:08:30.165Z,57.06
2022-08-09T11:09:21.274Z,56.74
2022-08-09T11:10:20.281Z,56.84
2022-08-09T11:11:21.275Z,57.70
2022-08-09T11:12:20.354Z,57.78
2022-08-09T11:13:54.109Z,56.88
2022-08-09T11:14:28.545Z,56.38
2022-08-09T11:15:24.083Z,57.87
2022-08-09T11:16:35.156Z,56.61
2022-08-09T11:17:21.179Z,57.24
2022-08-09T11:18:20.190Z,58.13
2022-08-09T11:19:20.167Z,57.46
2022-08-09T11:20:22.520Z,57.09
2022-08-09T11:21:20.131Z,58.01
2022-08-09T11:22:24.431Z,59.28
2022-08-09T11:23:24.050Z,59.42
2022-08-09T11:24:21.100Z,58.50
2022-08-09T11:25:25.718Z,56.59
2022-08-09T11:26:21.132Z,54.70
2022-08-09T11:28:02.644Z,56.85
2022-08-09T11:28:30.926Z,54.28
2022-08-09T11:30:06.636Z,53.58
2022-08-09T11:30:32.068Z,53.88
2022-08-09T11:31:33.762Z,54.08
2022-08-09T11:32:21.021Z,53.58
2022-08-09T11:33:20.216Z,54.05
2022-08-09T11:34:19.963Z,53.16
2022-08-09T11:35:23.811Z,53.16
2022-08-09T11:36:35.561Z,54.75
2022-08-09T11:37:20.922Z,53.92
2022-08-09T11:38:22.521Z,52.73
2022-08-09T11:39:20.935Z,51.65
2022-08-09T11:40:19.886Z,51.05
2022-08-09T11:41:19.879Z,51.35
2022-08-09T11:42:19.936Z,52.34
2022-08-09T11:43:19.852Z,52.22
2022-08-09T11:44:19.852Z,51.52
2022-08-09T11:45:19.826Z,51.30
2022-08-09T11:46:32.827Z,53.45
2022-08-09T11:47:20.787Z,50.68
2022-08-09T11:48:26.632Z,50.48
2022-08-09T11:49:28.141Z,51.45
2022-08-09T11:50:53.221Z,50.53
2022-08-09T11:52:56.779Z,49.54
2022-08-09T11:53:02.061Z,50.12
2022-08-09T11:53:57.839Z,50.51
2022-08-09T11:54:28.596Z,49.22
2022-08-09T11:55:34.653Z,49.49
2022-08-09T11:56:20.699Z,51.89
2022-08-09T11:57:47.098Z,52.02
2022-08-09T11:58:30.467Z,51.62
2022-08-09T11:59:20.674Z,52.07
2022-08-09T12:00:24.183Z,51.67
2022-08-09T12:02:00.953Z,50.68
2022-08-09T12:02:37.054Z,51.52
2022-08-09T12:03:54.824Z,52.54
2022-08-09T12:04:28.777Z,52.73
2022-08-09T12:05:22.735Z,52.64
2022-08-09T12:06:26.744Z,52.86
2022-08-09T12:07:20.534Z,53.45
2022-08-09T12:08:21.496Z,53.68
2022-08-09T12:09:21.166Z,53.36
2022-08-09T12:10:39.321Z,52.14
2022-08-09T12:11:20.481Z,51.92
2022-08-09T12:12:29.452Z,52.26
2022-08-09T12:14:09.408Z,51.75
2022-08-09T12:14:36.446Z,51.72
2022-08-09T12:15:48.473Z,51.50
2022-08-09T12:16:37.509Z,49.40
2022-08-09T12:17:34.384Z,48.51
2022-08-09T12:18:29.600Z,47.22
2022-08-09T12:19:20.502Z,48.51
2022-08-09T12:20:21.505Z,49.30
2022-08-09T12:21:26.481Z,48.78
2022-08-09T12:22:20.362Z,49.18
2022-08-09T12:23:24.761Z,45.94
2022-08-09T12:24:20.546Z,47.44
2022-08-09T12:25:36.817Z,49.81
2022-08-09T12:26:26.247Z,49.62
2022-08-09T12:29:13.892Z,47.86
2022-08-09T12:29:15.411Z,49.66
2022-08-09T12:29:33.577Z,46.38
2022-08-09T12:30:36.785Z,46.67
2022-08-09T12:31:58.633Z,47.02
2022-08-09T12:32:20.232Z,47.78
2022-08-09T12:33:19.249Z,46.97
2022-08-09T12:34:19.221Z,46.55
2022-08-09T12:35:21.904Z,47.52
2022-08-09T12:36:32.001Z,47.20
2022-08-09T12:37:24.229Z,46.59
2022-08-09T12:38:37.483Z,47.13
2022-08-09T12:39:20.265Z,47.01
2022-08-09T12:40:19.250Z,45.81
2022-08-09T12:41:19.389Z,44.92
2022-08-09T12:42:19.222Z,45.65
2022-08-09T12:43:19.118Z,47.70
2022-08-09T12:44:19.096Z,45.90
2022-08-09T12:45:34.956Z,45.67
2022-08-09T12:46:20.069Z,44.07
2022-08-09T12:47:23.008Z,43.68
2022-08-09T12:48:27.930Z,44.24
2022-08-09T12:49:20.853Z,42.47
2022-08-09T12:50:19.618Z,44.44
2022-08-09T12:51:52.180Z,45.13
2022-08-09T12:52:19.976Z,43.14
2022-08-09T12:53:23.739Z,44.02
2022-08-09T12:54:19.975Z,42.86
2022-08-09T12:56:14.938Z,43.15